METAR AND TAF INFORMATION
METAR FOR KIAD
KIAD 260252Z 17006KT 10SM FEW250 04/M04 A3007 RMK AO2 SLP185 T00441044 57003 $
KIAD 260152Z 16006KT 10SM FEW250 04/M05 A3008 RMK AO2 SLP187 T00391050 $
KIAD 260052Z 17006KT 10SM FEW250 06/M05 A3008 RMK AO2 SLP187 T00561050 $
KIAD 260257Z 2603/2706 17007KT P6SM BKN100 WS020/22030KT
FM261000 20007KT P6SM BKN100
FM261300 24005KT P6SM SCT200
FM262000 18006KT P6SM FEW200
FM262300 15004KT P6SM SCT150

 AIRPORT MAP

 RUNWAY INFORMATION
Runway 01C Runway length 11501 ft Runway width 150 ft
Runway elevation 286 ft Runway displaced threshold 0 ft Runway heading 1
Runway 19C Runway length 11501 ft Runway width 150 ft
Runway elevation 269 ft Runway displaced threshold 0 ft Runway heading 181
Runway 01L Runway length 11501 ft Runway width 150 ft
Runway elevation 286 ft Runway displaced threshold 0 ft Runway heading 1
Runway 19R Runway length 11501 ft Runway width 150 ft
Runway elevation 269 ft Runway displaced threshold 0 ft Runway heading 181
Runway 01R Runway length 11500 ft Runway width 150 ft
Runway elevation 312 ft Runway displaced threshold 0 ft Runway heading 1
Runway 19L Runway length 11500 ft Runway width 150 ft
Runway elevation 293 ft Runway displaced threshold 0 ft Runway heading 181
Runway 12 Runway length 10501 ft Runway width 150 ft
Runway elevation 310 ft Runway displaced threshold 0 ft Runway heading 111
Runway 30 Runway length 10501 ft Runway width 150 ft
Runway elevation 288 ft Runway displaced threshold 0 ft Runway heading 291

 AIRPORT FREQUENCIES
Type APP Name POTOMAC AP Frequency 120.45 MHZ
Type ATIS Name ATIS Frequency 134.85 MHZ
Type CLD Name CLNC DEL Frequency 135.7 MHZ
Type DEP Name POTOMAC DE Frequency 125.05 MHZ
Type GND Name GND Frequency 121.9 MHZ
Type RCO Name ARMEL RCO Frequency 113.5 MHZ
Type RMP Name RAMP CON Frequency 129.55 MHZ
Type TWR Name TWR Frequency 120.1 MHZ
Type UNIC Name UNICOM Frequency 122.95 MHZ

 AIRPORT NEAR NAVIGATION AIDS
Type VORTAC Name Armel Frequency 113500 KHZ
Type NDB Name Tille Frequency 346 KHZ

-